createdAt,value
2022-09-17T00:00:13.310Z,992.63
2022-09-17T00:01:13.337Z,992.62
2022-09-17T00:02:13.398Z,992.65
2022-09-17T00:03:13.576Z,992.68
2022-09-17T00:04:13.386Z,992.69
2022-09-17T00:05:13.406Z,992.68
2022-09-17T00:06:13.435Z,992.65
2022-09-17T00:07:13.448Z,992.66
2022-09-17T00:08:13.466Z,992.66
2022-09-17T00:09:13.485Z,992.66
2022-09-17T00:10:13.504Z,992.59
2022-09-17T00:11:13.526Z,992.64
2022-09-17T00:12:13.541Z,992.61
2022-09-17T00:13:13.571Z,992.62
2022-09-17T00:14:13.581Z,992.64
2022-09-17T00:15:13.602Z,992.62
2022-09-17T00:16:13.658Z,992.66
2022-09-17T00:17:13.643Z,992.65
2022-09-17T00:18:13.666Z,992.69
2022-09-17T00:19:13.810Z,992.72
2022-09-17T00:20:13.702Z,992.72
2022-09-17T00:21:13.730Z,992.75
2022-09-17T00:22:13.737Z,992.73
2022-09-17T00:23:13.763Z,992.79
2022-09-17T00:24:13.780Z,992.78
2022-09-17T00:25:13.799Z,992.74
2022-09-17T00:26:13.820Z,992.73
2022-09-17T00:27:13.840Z,992.73
2022-09-17T00:28:14.010Z,992.71
2022-09-17T00:29:13.880Z,992.7
2022-09-17T00:30:13.894Z,992.71
2022-09-17T00:31:13.987Z,992.73
2022-09-17T00:32:13.936Z,992.72
2022-09-17T00:33:13.956Z,992.75
2022-09-17T00:34:13.976Z,992.73
2022-09-17T00:35:14.117Z,992.76
2022-09-17T00:36:14.017Z,992.74
2022-09-17T00:37:14.032Z,992.76
2022-09-17T00:38:14.052Z,992.78
2022-09-17T00:39:14.077Z,992.76
2022-09-17T00:40:14.200Z,992.78
2022-09-17T00:41:14.110Z,992.82
2022-09-17T00:42:14.130Z,992.82
2022-09-17T00:43:14.153Z,992.78
2022-09-17T00:44:14.175Z,992.8
2022-09-17T00:45:14.194Z,992.77
2022-09-17T00:46:14.230Z,992.74
2022-09-17T00:47:14.233Z,992.76
2022-09-17T00:48:14.254Z,992.73
2022-09-17T00:49:14.273Z,992.75
2022-09-17T00:50:14.297Z,992.75
2022-09-17T00:51:14.440Z,992.75
2022-09-17T00:52:14.327Z,992.76
2022-09-17T00:53:14.350Z,992.78
2022-09-17T00:54:14.368Z,992.78
2022-09-17T00:55:14.389Z,992.77
2022-09-17T00:56:14.407Z,992.76
2022-09-17T00:57:14.432Z,992.75
2022-09-17T00:58:14.447Z,992.76
2022-09-17T00:59:14.467Z,992.76
2022-09-17T01:00:14.486Z,992.75
2022-09-17T01:01:14.574Z,992.77
2022-09-17T01:02:14.566Z,992.73
2022-09-17T01:03:14.548Z,992.76
2022-09-17T01:04:14.570Z,992.79
2022-09-17T01:05:14.589Z,992.8
2022-09-17T01:06:14.607Z,992.81
2022-09-17T01:07:14.748Z,992.82
2022-09-17T01:08:14.647Z,992.85
2022-09-17T01:09:14.666Z,992.83
2022-09-17T01:10:14.680Z,992.84
2022-09-17T01:11:14.704Z,992.82
2022-09-17T01:12:14.723Z,992.83
2022-09-17T01:13:14.742Z,992.86
2022-09-17T01:14:14.760Z,992.86
2022-09-17T01:15:14.782Z,992.81
2022-09-17T01:16:14.863Z,992.84
2022-09-17T01:17:14.825Z,992.86
2022-09-17T01:18:14.837Z,992.87
2022-09-17T01:19:14.864Z,992.83
2022-09-17T01:20:14.877Z,992.83
2022-09-17T01:21:14.900Z,992.82
2022-09-17T01:22:14.915Z,992.88
2022-09-17T01:23:15.060Z,992.83
2022-09-17T01:24:14.957Z,992.85
2022-09-17T01:25:14.985Z,992.84
2022-09-17T01:26:14.996Z,992.81
2022-09-17T01:27:15.022Z,992.85
2022-09-17T01:28:15.234Z,992.85
2022-09-17T01:29:15.055Z,992.88
2022-09-17T01:30:15.072Z,992.87
2022-09-17T01:31:15.160Z,992.84
2022-09-17T01:32:15.111Z,992.84
2022-09-17T01:33:15.131Z,992.84
2022-09-17T01:34:15.154Z,992.85
2022-09-17T01:35:15.169Z,992.89
2022-09-17T01:36:15.193Z,992.89
2022-09-17T01:37:15.208Z,992.94
2022-09-17T01:38:15.230Z,992.9
2022-09-17T01:39:15.377Z,992.92
2022-09-17T01:40:15.307Z,992.93
2022-09-17T01:41:15.285Z,992.94
2022-09-17T01:42:15.306Z,992.96
2022-09-17T01:43:15.325Z,992.95
2022-09-17T01:44:15.346Z,992.98
2022-09-17T01:45:15.368Z,992.94
2022-09-17T01:46:15.448Z,992.99
2022-09-17T01:47:18.959Z,993.04
2022-09-17T01:48:15.424Z,993.01
2022-09-17T01:49:15.442Z,992.98
2022-09-17T01:50:15.463Z,993.04
2022-09-17T01:51:15.482Z,993.05
2022-09-17T01:52:15.500Z,993.04
2022-09-17T01:53:15.519Z,993.03
2022-09-17T01:54:15.543Z,993.06
2022-09-17T01:55:15.685Z,993.03
2022-09-17T01:56:15.572Z,993.02
2022-09-17T01:57:15.600Z,993.05
2022-09-17T01:58:15.620Z,993.04
2022-09-17T01:59:15.637Z,993.01
2022-09-17T02:00:15.659Z,993.05
2022-09-17T02:01:15.741Z,993.05
2022-09-17T02:02:15.739Z,993.04
2022-09-17T02:03:15.716Z,993.03
2022-09-17T02:04:15.736Z,993
2022-09-17T02:05:15.758Z,992.98
2022-09-17T02:06:15.776Z,993.04
2022-09-17T02:07:15.793Z,993.02
2022-09-17T02:08:15.815Z,993.04
2022-09-17T02:09:15.832Z,993.09
2022-09-17T02:10:15.854Z,993.05
2022-09-17T02:11:15.992Z,993.03
2022-09-17T02:12:15.893Z,993.09
2022-09-17T02:13:15.916Z,993.04
2022-09-17T02:14:15.933Z,993.04
2022-09-17T02:15:15.951Z,993.04
2022-09-17T02:16:16.046Z,993.05
2022-09-17T02:17:15.987Z,993.09
2022-09-17T02:18:16.010Z,993.09
2022-09-17T02:19:16.026Z,993.1
2022-09-17T02:20:18.633Z,993.12
2022-09-17T02:21:16.068Z,993.08
2022-09-17T02:22:16.090Z,993.13
2022-09-17T02:23:16.105Z,993.11
2022-09-17T02:24:16.131Z,993.18
2022-09-17T02:25:16.145Z,993.17
2022-09-17T02:26:16.164Z,993.19
2022-09-17T02:27:16.307Z,993.2
2022-09-17T02:28:16.351Z,993.15
2022-09-17T02:29:16.223Z,993.16
2022-09-17T02:30:16.242Z,993.2
2022-09-17T02:31:16.313Z,993.14
2022-09-17T02:32:16.289Z,993.17
2022-09-17T02:33:16.302Z,993.14
2022-09-17T02:34:16.325Z,993.18
2022-09-17T02:35:16.340Z,993.14
2022-09-17T02:36:16.356Z,993.16
2022-09-17T02:37:16.378Z,993.14
2022-09-17T02:38:16.395Z,993.18
2022-09-17T02:39:16.419Z,993.19
2022-09-17T02:40:16.497Z,993.23
2022-09-17T02:41:16.455Z,993.22
2022-09-17T02:42:16.475Z,993.22
2022-09-17T02:43:16.614Z,993.16
2022-09-17T02:44:16.514Z,993.18
2022-09-17T02:45:16.535Z,993.17
2022-09-17T02:46:16.603Z,993.18
2022-09-17T02:47:16.574Z,993.16
2022-09-17T02:48:16.592Z,993.14
2022-09-17T02:49:16.613Z,993.17
2022-09-17T02:50:16.629Z,993.08
2022-09-17T02:51:16.651Z,993.14
2022-09-17T02:52:16.669Z,993.15
2022-09-17T02:53:16.691Z,993.17
2022-09-17T02:54:16.707Z,993.24
2022-09-17T02:55:16.732Z,993.25
2022-09-17T02:56:16.747Z,993.26
2022-09-17T02:57:16.767Z,993.25
2022-09-17T02:58:16.788Z,993.22
2022-09-17T02:59:16.926Z,993.29
2022-09-17T03:00:16.824Z,993.22
2022-09-17T03:01:16.884Z,993.29
2022-09-17T03:02:17.003Z,993.31
2022-09-17T03:03:16.883Z,993.29
2022-09-17T03:04:16.903Z,993.26
2022-09-17T03:05:16.925Z,993.23
2022-09-17T03:06:16.942Z,993.28
2022-09-17T03:07:16.963Z,993.27
2022-09-17T03:08:16.977Z,993.27
2022-09-17T03:09:17.007Z,993.27
2022-09-17T03:10:17.016Z,993.29
2022-09-17T03:11:17.038Z,993.31
2022-09-17T03:12:17.056Z,993.31
2022-09-17T03:13:17.078Z,993.3
2022-09-17T03:14:17.097Z,993.33
2022-09-17T03:15:17.231Z,993.27
2022-09-17T03:16:17.160Z,993.26
2022-09-17T03:17:17.154Z,993.26
2022-09-17T03:18:17.172Z,993.33
2022-09-17T03:19:17.193Z,993.37
2022-09-17T03:20:17.212Z,993.36
2022-09-17T03:21:17.228Z,993.35
2022-09-17T03:22:17.251Z,993.38
2022-09-17T03:23:17.267Z,993.37
2022-09-17T03:24:17.289Z,993.38
2022-09-17T03:25:17.306Z,993.36
2022-09-17T03:26:17.325Z,993.4
2022-09-17T03:27:17.346Z,993.44
2022-09-17T03:28:17.567Z,993.46
2022-09-17T03:29:17.384Z,993.45
2022-09-17T03:30:17.403Z,993.39
2022-09-17T03:31:17.579Z,993.41
2022-09-17T03:32:17.446Z,993.35
2022-09-17T03:33:17.462Z,993.38
2022-09-17T03:34:17.481Z,993.39
2022-09-17T03:35:17.500Z,993.34
2022-09-17T03:36:17.522Z,993.36
2022-09-17T03:37:17.538Z,993.37
2022-09-17T03:38:17.561Z,993.38
2022-09-17T03:39:17.577Z,993.34
2022-09-17T03:40:17.659Z,993.39
2022-09-17T03:41:17.616Z,993.43
2022-09-17T03:42:17.636Z,993.41
2022-09-17T03:43:17.651Z,993.39
2022-09-17T03:44:17.673Z,993.39
2022-09-17T03:45:17.693Z,993.36
2022-09-17T03:46:17.732Z,993.4
2022-09-17T03:47:17.852Z,993.36
2022-09-17T03:48:17.754Z,993.4
2022-09-17T03:49:17.767Z,993.37
2022-09-17T03:50:17.791Z,993.39
2022-09-17T03:51:17.807Z,993.41
2022-09-17T03:52:17.828Z,993.41
2022-09-17T03:53:17.847Z,993.47
2022-09-17T03:54:17.866Z,993.44
2022-09-17T03:55:17.885Z,993.45
2022-09-17T03:56:17.908Z,993.44
2022-09-17T03:57:17.928Z,993.43
2022-09-17T03:58:17.943Z,993.43
2022-09-17T03:59:17.964Z,993.5
2022-09-17T04:00:17.984Z,993.54
2022-09-17T04:01:18.042Z,993.51
2022-09-17T04:02:18.112Z,993.57
2022-09-17T04:03:18.165Z,993.61
2022-09-17T04:04:18.059Z,993.59
2022-09-17T04:05:18.075Z,993.55
2022-09-17T04:06:18.097Z,993.55
2022-09-17T04:07:18.118Z,993.63
2022-09-17T04:08:18.137Z,993.57
2022-09-17T04:09:18.158Z,993.63
2022-09-17T04:10:18.176Z,993.61
2022-09-17T04:11:18.196Z,993.65
2022-09-17T04:12:18.212Z,993.65
2022-09-17T04:13:18.237Z,993.66
2022-09-17T04:14:18.252Z,993.67
2022-09-17T04:15:18.274Z,993.65
2022-09-17T04:16:18.372Z,993.7
2022-09-17T04:17:18.308Z,993.71
2022-09-17T04:18:18.327Z,993.7
2022-09-17T04:19:18.471Z,993.66
2022-09-17T04:20:18.364Z,993.7
2022-09-17T04:21:18.385Z,993.73
2022-09-17T04:22:18.403Z,993.71
2022-09-17T04:23:18.422Z,993.78
2022-09-17T04:24:18.440Z,993.75
2022-09-17T04:25:18.467Z,993.78
2022-09-17T04:26:18.480Z,993.79
2022-09-17T04:27:18.502Z,993.83
2022-09-17T04:28:18.720Z,993.82
2022-09-17T04:29:18.538Z,993.81
2022-09-17T04:30:18.559Z,993.8
2022-09-17T04:31:18.664Z,993.83
2022-09-17T04:32:18.595Z,993.84
2022-09-17T04:33:18.615Z,993.86
2022-09-17T04:34:18.634Z,993.88
2022-09-17T04:35:18.775Z,993.89
2022-09-17T04:36:18.669Z,993.87
2022-09-17T04:37:18.691Z,993.89
2022-09-17T04:38:18.725Z,993.88
2022-09-17T04:39:18.731Z,993.91
2022-09-17T04:40:18.809Z,993.94
2022-09-17T04:41:18.769Z,993.9
2022-09-17T04:42:18.786Z,993.9
2022-09-17T04:43:18.805Z,993.93
2022-09-17T04:44:18.825Z,993.92
2022-09-17T04:45:18.846Z,993.89
2022-09-17T04:46:18.934Z,993.88
2022-09-17T04:47:18.885Z,993.87
2022-09-17T04:48:18.901Z,993.91
2022-09-17T04:49:18.918Z,993.94
2022-09-17T04:50:18.942Z,993.92
2022-09-17T04:51:19.085Z,993.92
2022-09-17T04:52:18.976Z,993.93
2022-09-17T04:53:19.004Z,993.91
2022-09-17T04:54:19.015Z,993.91
2022-09-17T04:55:19.035Z,993.97
2022-09-17T04:56:19.052Z,993.99
2022-09-17T04:57:19.081Z,993.99
2022-09-17T04:58:19.093Z,994
2022-09-17T04:59:19.111Z,994.02
2022-09-17T05:00:19.131Z,994
2022-09-17T05:01:19.261Z,993.96
2022-09-17T05:02:19.192Z,993.99
2022-09-17T05:03:19.189Z,993.98
2022-09-17T05:04:19.207Z,993.99
2022-09-17T05:05:19.233Z,993.99
2022-09-17T05:06:19.245Z,993.99
2022-09-17T05:07:19.386Z,994.01
2022-09-17T05:08:19.286Z,994.03
2022-09-17T05:09:19.303Z,994.05
2022-09-17T05:10:19.328Z,994.02
2022-09-17T05:11:19.339Z,994.03
2022-09-17T05:12:19.359Z,994.03
2022-09-17T05:13:19.379Z,993.98
2022-09-17T05:14:19.402Z,994.05
2022-09-17T05:15:19.416Z,994.07
2022-09-17T05:16:19.493Z,994.08
2022-09-17T05:17:19.457Z,994.1
2022-09-17T05:18:19.477Z,994.05
2022-09-17T05:19:19.494Z,994.09
2022-09-17T05:20:19.519Z,994.11
2022-09-17T05:21:19.534Z,994.1
2022-09-17T05:22:21.413Z,994.13
2022-09-17T05:23:19.698Z,994.18
2022-09-17T05:24:19.589Z,994.11
2022-09-17T05:25:19.609Z,994.11
2022-09-17T05:26:19.630Z,994.12
2022-09-17T05:27:19.646Z,994.11
2022-09-17T05:28:19.868Z,994.1
2022-09-17T05:29:19.687Z,994.11
2022-09-17T05:30:19.707Z,994.13
2022-09-17T05:31:19.757Z,994.17
2022-09-17T05:32:19.746Z,994.13
2022-09-17T05:33:19.763Z,994.15
2022-09-17T05:34:19.785Z,994.1
2022-09-17T05:35:19.802Z,994.12
2022-09-17T05:36:19.823Z,994.13
2022-09-17T05:37:19.840Z,994.14
2022-09-17T05:38:19.864Z,994.16
2022-09-17T05:39:20.007Z,994.22
2022-09-17T05:40:19.985Z,994.25
2022-09-17T05:41:19.919Z,994.28
2022-09-17T05:42:19.940Z,994.3
2022-09-17T05:43:19.956Z,994.29
2022-09-17T05:44:19.978Z,994.3
2022-09-17T05:45:19.993Z,994.35
2022-09-17T05:46:20.058Z,994.33
2022-09-17T05:47:20.044Z,994.34
2022-09-17T05:48:20.053Z,994.32
2022-09-17T05:49:20.072Z,994.36
2022-09-17T05:50:20.100Z,994.35
2022-09-17T05:51:20.114Z,994.33
2022-09-17T05:52:20.132Z,994.33
2022-09-17T05:53:20.162Z,994.31
2022-09-17T05:54:20.171Z,994.36
2022-09-17T05:55:20.310Z,994.33
2022-09-17T05:56:20.205Z,994.31
2022-09-17T05:57:20.226Z,994.31
2022-09-17T05:58:20.246Z,994.35
2022-09-17T05:59:20.266Z,994.35
2022-09-17T06:00:20.282Z,994.36
2022-09-17T06:01:20.309Z,994.41
2022-09-17T06:02:20.426Z,994.4
2022-09-17T06:03:20.419Z,994.44
2022-09-17T06:04:20.354Z,994.45
2022-09-17T06:05:20.381Z,994.49
2022-09-17T06:06:20.398Z,994.5
2022-09-17T06:07:20.417Z,994.49
2022-09-17T06:08:20.438Z,994.49
2022-09-17T06:09:20.456Z,994.55
2022-09-17T06:10:20.476Z,994.59
2022-09-17T06:11:20.618Z,994.61
2022-09-17T06:12:20.514Z,994.64
2022-09-17T06:13:20.559Z,994.67
2022-09-17T06:14:20.550Z,994.63
2022-09-17T06:15:20.577Z,994.63
2022-09-17T06:16:20.669Z,994.66
2022-09-17T06:17:22.240Z,994.67
2022-09-17T06:18:20.633Z,994.69
2022-09-17T06:19:20.652Z,994.68
2022-09-17T06:20:20.666Z,994.69
2022-09-17T06:21:20.691Z,994.71
2022-09-17T06:22:20.706Z,994.68
2022-09-17T06:23:20.730Z,994.66
2022-09-17T06:24:20.741Z,994.7
2022-09-17T06:25:20.766Z,994.72
2022-09-17T06:26:20.787Z,994.73
2022-09-17T06:27:20.937Z,994.72
2022-09-17T06:28:20.870Z,994.67
2022-09-17T06:29:20.843Z,994.71
2022-09-17T06:30:20.860Z,994.74
2022-09-17T06:31:20.905Z,994.77
2022-09-17T06:32:20.899Z,994.72
2022-09-17T06:33:20.922Z,994.78
2022-09-17T06:34:20.941Z,994.79
2022-09-17T06:35:20.957Z,994.75
2022-09-17T06:36:20.975Z,994.7
2022-09-17T06:37:20.995Z,994.72
2022-09-17T06:38:21.016Z,994.73
2022-09-17T06:39:21.035Z,994.73
2022-09-17T06:40:21.107Z,994.73
2022-09-17T06:41:21.071Z,994.71
2022-09-17T06:42:21.093Z,994.72
2022-09-17T06:43:21.237Z,994.77
2022-09-17T06:44:21.132Z,994.72
2022-09-17T06:45:21.148Z,994.73
2022-09-17T06:46:21.285Z,994.7
2022-09-17T06:47:21.188Z,994.71
2022-09-17T06:48:21.212Z,994.74
2022-09-17T06:49:21.225Z,994.77
2022-09-17T06:50:21.246Z,994.74
2022-09-17T06:51:21.267Z,994.72
2022-09-17T06:52:21.287Z,994.79
2022-09-17T06:53:21.302Z,994.73
2022-09-17T06:54:21.326Z,994.68
2022-09-17T06:55:21.341Z,994.76
2022-09-17T06:56:21.362Z,994.8
2022-09-17T06:57:21.377Z,994.79
2022-09-17T06:58:21.403Z,994.76
2022-09-17T06:59:21.545Z,994.78
2022-09-17T07:00:21.440Z,994.79
2022-09-17T07:01:21.534Z,994.77
2022-09-17T07:02:21.556Z,994.81
2022-09-17T07:03:23.360Z,994.81
2022-09-17T07:04:21.510Z,994.86
2022-09-17T07:05:21.534Z,994.81
2022-09-17T07:06:21.556Z,994.83
2022-09-17T07:07:21.573Z,994.81
2022-09-17T07:08:21.593Z,994.75
2022-09-17T07:09:21.612Z,994.85
2022-09-17T07:10:21.629Z,994.8
2022-09-17T07:11:21.650Z,994.82
2022-09-17T07:12:21.670Z,994.77
2022-09-17T07:13:21.688Z,994.79
2022-09-17T07:14:21.709Z,994.75
2022-09-17T07:15:21.846Z,994.77
2022-09-17T07:16:21.772Z,994.76
2022-09-17T07:17:21.767Z,994.72
2022-09-17T07:18:21.789Z,994.77
2022-09-17T07:19:21.805Z,994.76
2022-09-17T07:20:21.825Z,994.78
2022-09-17T07:21:21.843Z,994.73
2022-09-17T07:22:21.863Z,994.75
2022-09-17T07:23:21.884Z,994.75
2022-09-17T07:24:21.902Z,994.75
2022-09-17T07:25:21.920Z,994.69
2022-09-17T07:26:21.944Z,994.73
2022-09-17T07:27:21.959Z,994.71
2022-09-17T07:28:22.181Z,994.72
2022-09-17T07:29:22.001Z,994.72
2022-09-17T07:30:22.022Z,994.72
2022-09-17T07:31:22.202Z,994.72
2022-09-17T07:32:22.056Z,994.77
2022-09-17T07:33:22.075Z,994.73
2022-09-17T07:34:22.097Z,994.76
2022-09-17T07:35:22.117Z,994.74
2022-09-17T07:36:22.134Z,994.74
2022-09-17T07:37:22.158Z,994.72
2022-09-17T07:38:22.175Z,994.74
2022-09-17T07:39:22.196Z,994.7
2022-09-17T07:40:22.387Z,994.76
2022-09-17T07:41:22.229Z,994.77
2022-09-17T07:42:22.247Z,994.74
2022-09-17T07:43:22.274Z,994.77
2022-09-17T07:44:22.288Z,994.72
2022-09-17T07:45:22.312Z,994.7
2022-09-17T07:46:22.362Z,994.77
2022-09-17T07:47:22.498Z,994.77
2022-09-17T07:48:22.369Z,994.79
2022-09-17T07:49:22.392Z,994.8
2022-09-17T07:50:22.477Z,994.82
2022-09-17T07:51:22.429Z,994.77
2022-09-17T07:52:22.439Z,994.77
2022-09-17T07:53:22.470Z,994.79
2022-09-17T07:54:22.484Z,994.74
2022-09-17T07:55:22.507Z,994.74
2022-09-17T07:56:22.523Z,994.72
2022-09-17T07:57:22.546Z,994.7
2022-09-17T07:58:22.564Z,994.73
2022-09-17T07:59:22.584Z,994.67
2022-09-17T08:00:22.620Z,994.69
2022-09-17T08:01:22.838Z,994.73
2022-09-17T08:02:24.258Z,994.7
2022-09-17T08:03:22.786Z,994.67
2022-09-17T08:04:22.675Z,994.69
2022-09-17T08:05:22.694Z,994.7
2022-09-17T08:06:22.720Z,994.73
2022-09-17T08:07:22.742Z,994.75
2022-09-17T08:08:22.759Z,994.72
2022-09-17T08:09:22.782Z,994.69
2022-09-17T08:10:22.798Z,994.71
2022-09-17T08:11:38.557Z,994.73
2022-09-17T08:12:22.836Z,994.74
2022-09-17T08:13:22.859Z,994.73
2022-09-17T08:14:27.108Z,994.71
2022-09-17T08:15:22.897Z,994.73
2022-09-17T08:16:22.977Z,994.71
2022-09-17T08:17:22.940Z,994.71
2022-09-17T08:18:22.962Z,994.72
2022-09-17T08:19:23.098Z,994.76
2022-09-17T08:20:22.995Z,994.74
2022-09-17T08:21:23.017Z,994.72
2022-09-17T08:22:23.034Z,994.71
2022-09-17T08:23:23.053Z,994.66
2022-09-17T08:24:23.074Z,994.68
2022-09-17T08:25:23.091Z,994.73
2022-09-17T08:26:23.113Z,994.74
2022-09-17T08:27:23.131Z,994.69
2022-09-17T08:28:23.403Z,994.75
2022-09-17T08:29:23.170Z,994.74
2022-09-17T08:30:23.192Z,994.69
2022-09-17T08:31:23.259Z,994.7
2022-09-17T08:32:23.231Z,994.66
2022-09-17T08:33:23.247Z,994.68
2022-09-17T08:34:23.268Z,994.68
2022-09-17T08:35:23.409Z,994.64
2022-09-17T08:36:23.311Z,994.61
2022-09-17T08:37:23.328Z,994.68
2022-09-17T08:38:23.348Z,994.65
2022-09-17T08:39:23.374Z,994.62
2022-09-17T08:40:23.439Z,994.66
2022-09-17T08:41:23.405Z,994.62
2022-09-17T08:42:23.421Z,994.68
2022-09-17T08:43:23.443Z,994.62
2022-09-17T08:44:23.461Z,994.71
2022-09-17T08:45:23.485Z,994.66
2022-09-17T08:46:23.540Z,994.66
2022-09-17T08:47:23.523Z,994.61
2022-09-17T08:48:23.550Z,994.61
2022-09-17T08:49:23.564Z,994.57
2022-09-17T08:50:23.587Z,994.56
2022-09-17T08:51:23.720Z,994.57
2022-09-17T08:52:23.619Z,994.62
2022-09-17T08:53:23.643Z,994.61
2022-09-17T08:54:23.663Z,994.58
2022-09-17T08:55:23.680Z,994.58
2022-09-17T08:56:23.702Z,994.59
2022-09-17T08:57:23.721Z,994.62
2022-09-17T08:58:23.744Z,994.62
2022-09-17T08:59:23.765Z,994.63
2022-09-17T09:00:23.783Z,994.63
2022-09-17T09:01:23.866Z,994.64
2022-09-17T09:02:23.934Z,994.66
2022-09-17T09:03:23.840Z,994.67
2022-09-17T09:04:23.859Z,994.68
2022-09-17T09:05:23.880Z,994.69
2022-09-17T09:06:23.900Z,994.68
2022-09-17T09:07:24.041Z,994.62
2022-09-17T09:08:23.941Z,994.64
2022-09-17T09:09:23.960Z,994.63
2022-09-17T09:10:23.981Z,994.62
2022-09-17T09:11:23.999Z,994.63
2022-09-17T09:12:24.027Z,994.62
2022-09-17T09:13:24.037Z,994.67
2022-09-17T09:14:24.061Z,994.68
2022-09-17T09:15:24.079Z,994.68
2022-09-17T09:16:24.135Z,994.65
2022-09-17T09:17:24.122Z,994.71
2022-09-17T09:18:24.136Z,994.65
2022-09-17T09:19:24.159Z,994.67
2022-09-17T09:20:24.183Z,994.66
2022-09-17T09:21:24.200Z,994.59
2022-09-17T09:22:24.213Z,994.64
2022-09-17T09:23:24.363Z,994.69
2022-09-17T09:24:24.257Z,994.63
2022-09-17T09:25:24.281Z,994.6
2022-09-17T09:26:24.297Z,994.63
2022-09-17T09:27:24.318Z,994.61
2022-09-17T09:28:24.535Z,994.62
2022-09-17T09:29:24.361Z,994.58
2022-09-17T09:30:24.378Z,994.59
2022-09-17T09:31:24.448Z,994.58
2022-09-17T09:32:24.414Z,994.5
2022-09-17T09:33:24.438Z,994.5
2022-09-17T09:34:24.454Z,994.46
2022-09-17T09:35:24.478Z,994.47
2022-09-17T09:36:24.495Z,994.44
2022-09-17T09:37:24.519Z,994.46
2022-09-17T09:38:24.536Z,994.54
2022-09-17T09:39:24.680Z,994.43
2022-09-17T09:40:24.649Z,994.49
2022-09-17T09:41:24.597Z,994.43
2022-09-17T09:42:24.618Z,994.46
2022-09-17T09:43:32.728Z,994.54
2022-09-17T09:44:24.655Z,994.55
2022-09-17T09:45:24.681Z,994.48
2022-09-17T09:46:24.740Z,994.54
2022-09-17T09:47:24.720Z,994.49
2022-09-17T09:48:24.743Z,994.51
2022-09-17T09:49:24.763Z,994.5
2022-09-17T09:50:24.776Z,994.54
2022-09-17T09:51:24.803Z,994.58
2022-09-17T09:52:24.818Z,994.51
2022-09-17T09:53:24.842Z,994.53
2022-09-17T09:54:24.859Z,994.54
2022-09-17T09:55:26.830Z,994.49
2022-09-17T09:56:24.899Z,994.52
2022-09-17T09:57:24.920Z,994.49
2022-09-17T09:58:24.940Z,994.5
2022-09-17T09:59:24.966Z,994.53
2022-09-17T10:00:24.980Z,994.5
2022-09-17T10:01:25.038Z,994.48
2022-09-17T10:02:25.136Z,994.53
2022-09-17T10:03:25.044Z,994.54
2022-09-17T10:04:25.056Z,994.56
2022-09-17T10:05:25.081Z,994.52
2022-09-17T10:06:25.101Z,994.56
2022-09-17T10:07:25.122Z,994.54
2022-09-17T10:08:25.144Z,994.49
2022-09-17T10:09:25.159Z,994.51
2022-09-17T10:10:25.187Z,994.52
2022-09-17T10:11:25.345Z,994.55
2022-09-17T10:12:25.219Z,994.53
2022-09-17T10:13:25.243Z,994.47
2022-09-17T10:14:25.258Z,994.5
2022-09-17T10:15:25.285Z,994.56
2022-09-17T10:16:25.532Z,994.5
2022-09-17T10:17:25.322Z,994.51
2022-09-17T10:18:25.340Z,994.52
2022-09-17T10:19:25.408Z,994.48
2022-09-17T10:20:25.384Z,994.53
2022-09-17T10:21:25.402Z,994.5
2022-09-17T10:22:25.419Z,994.58
2022-09-17T10:23:25.444Z,994.54
2022-09-17T10:24:25.466Z,994.62
2022-09-17T10:25:25.483Z,994.54
2022-09-17T10:26:25.509Z,994.58
2022-09-17T10:27:25.649Z,994.64
2022-09-17T10:28:25.797Z,994.56
2022-09-17T10:29:25.600Z,994.57
2022-09-17T10:30:25.587Z,994.52
2022-09-17T10:31:25.667Z,994.52
2022-09-17T10:32:25.623Z,994.5
2022-09-17T10:33:25.654Z,994.57
2022-09-17T10:34:25.671Z,994.5
2022-09-17T10:35:25.690Z,994.51
2022-09-17T10:36:25.709Z,994.51
2022-09-17T10:37:25.727Z,994.52
2022-09-17T10:38:25.750Z,994.48
2022-09-17T10:39:25.843Z,994.51
2022-09-17T10:40:25.876Z,994.49
2022-09-17T10:41:25.807Z,994.54
2022-09-17T10:42:25.832Z,994.49
2022-09-17T10:43:25.974Z,994.53
2022-09-17T10:44:25.870Z,994.52
2022-09-17T10:45:25.891Z,994.51
2022-09-17T10:46:27.698Z,994.51
2022-09-17T10:47:25.931Z,994.46
2022-09-17T10:48:25.953Z,994.44
2022-09-17T10:49:25.970Z,994.43
2022-09-17T10:50:25.994Z,994.4
2022-09-17T10:51:26.011Z,994.4
2022-09-17T10:52:26.034Z,994.39
2022-09-17T10:53:26.054Z,994.33
2022-09-17T10:54:26.069Z,994.36
2022-09-17T10:55:26.093Z,994.34
2022-09-17T10:56:26.115Z,994.39
2022-09-17T10:57:26.133Z,994.32
2022-09-17T10:58:26.155Z,994.36
2022-09-17T10:59:26.296Z,994.35
2022-09-17T11:00:26.194Z,994.34
2022-09-17T11:01:26.277Z,994.28
2022-09-17T11:02:26.387Z,994.31
2022-09-17T11:03:26.257Z,994.27
2022-09-17T11:04:26.273Z,994.27
2022-09-17T11:05:26.298Z,994.29
2022-09-17T11:06:26.316Z,994.25
2022-09-17T11:07:26.341Z,994.23
2022-09-17T11:08:26.359Z,994.27
2022-09-17T11:09:26.378Z,994.23
2022-09-17T11:10:26.398Z,994.23
2022-09-17T11:11:26.422Z,994.2
2022-09-17T11:12:26.434Z,994.19
2022-09-17T11:13:26.462Z,994.17
2022-09-17T11:14:26.477Z,994.21
2022-09-17T11:15:26.625Z,994.24
2022-09-17T11:16:26.581Z,994.2
2022-09-17T11:17:26.543Z,994.13
2022-09-17T11:18:26.560Z,994.11
2022-09-17T11:19:26.583Z,994.07
2022-09-17T11:20:26.604Z,994.06
2022-09-17T11:21:26.627Z,994.09
2022-09-17T11:22:26.642Z,994.09
2022-09-17T11:23:26.670Z,994.03
2022-09-17T11:24:26.680Z,994.05
2022-09-17T11:25:26.705Z,994.05
2022-09-17T11:26:26.723Z,994.02
2022-09-17T11:27:26.745Z,993.99
2022-09-17T11:28:26.915Z,994.03
2022-09-17T11:29:26.812Z,993.99
2022-09-17T11:30:26.805Z,993.98
2022-09-17T11:31:27.033Z,993.97
2022-09-17T11:32:26.846Z,994.03
2022-09-17T11:33:26.869Z,994.06
2022-09-17T11:34:26.883Z,994.13
2022-09-17T11:35:26.907Z,994.15
2022-09-17T11:36:26.931Z,994.16
2022-09-17T11:37:26.951Z,994.16
2022-09-17T11:38:26.969Z,994.14
2022-09-17T11:39:26.991Z,994.15
2022-09-17T11:40:27.038Z,994.27
2022-09-17T11:41:27.028Z,994.34
2022-09-17T11:42:27.049Z,994.31
2022-09-17T11:43:27.068Z,994.27
2022-09-17T11:44:27.084Z,994.3
2022-09-17T11:45:27.111Z,994.27
2022-09-17T11:46:27.175Z,994.23
2022-09-17T11:47:27.271Z,994.23
2022-09-17T11:48:27.173Z,994.22
2022-09-17T11:49:27.190Z,994.22
2022-09-17T11:50:27.209Z,994.22
2022-09-17T11:51:27.231Z,994.19
2022-09-17T11:52:27.252Z,994.19
2022-09-17T11:53:27.269Z,994.14
2022-09-17T11:54:27.297Z,994.15
2022-09-17T11:55:27.311Z,994.09
2022-09-17T11:56:27.334Z,994.08
2022-09-17T11:57:27.352Z,994.06
2022-09-17T11:58:27.373Z,994.05
2022-09-17T11:59:27.404Z,994.03
2022-09-17T12:00:27.414Z,993.98
2022-09-17T12:01:27.437Z,993.98
2022-09-17T12:02:27.542Z,993.94
2022-09-17T12:03:27.640Z,993.91
2022-09-17T12:04:27.498Z,993.98
2022-09-17T12:05:27.517Z,993.93
2022-09-17T12:06:27.537Z,993.97
2022-09-17T12:07:27.562Z,993.94
2022-09-17T12:08:27.579Z,993.94
2022-09-17T12:09:27.597Z,993.93
2022-09-17T12:10:27.620Z,993.93
2022-09-17T12:11:27.634Z,993.89
2022-09-17T12:12:48.216Z,993.89
2022-09-17T12:13:27.676Z,993.87
2022-09-17T12:14:27.695Z,993.86
2022-09-17T12:15:27.714Z,993.9
2022-09-17T12:16:27.783Z,993.87
2022-09-17T12:17:27.756Z,993.9
2022-09-17T12:18:32.014Z,993.88
2022-09-17T12:19:27.921Z,993.88
2022-09-17T12:20:27.817Z,993.93
2022-09-17T12:21:27.835Z,993.91
2022-09-17T12:22:27.859Z,993.84
2022-09-17T12:23:27.875Z,993.84
2022-09-17T12:24:27.896Z,993.75
2022-09-17T12:25:27.918Z,993.76
2022-09-17T12:26:27.939Z,993.83
2022-09-17T12:27:27.959Z,993.79
2022-09-17T12:28:28.026Z,993.83
2022-09-17T12:29:28.001Z,993.79
2022-09-17T12:30:28.019Z,993.82